Time,TemperatureF,DewpointF,PressureIn,WindDirection,WindDirectionDegrees,WindSpeedMPH,WindSpeedGustMPH,Humidity,HourlyPrecipIn,Conditions,Clouds,dailyrainin,SoftwareType,DateUTC
2013-06-28 00:04:00,55.3,54.7,30.14,SW,218,2.0,4.0,98,0.00,,,0.00,Wunderground v.1.15,2013-06-28 07:04:00,
2013-06-28 00:09:00,55.5,54.9,30.14,SW,218,3.0,4.0,98,0.00,,,0.00,Wunderground v.1.15,2013-06-28 07:09:00,
2013-06-28 00:15:00,55.6,55.0,30.14,SW,218,2.0,4.0,98,0.00,,,0.00,Wunderground v.1.15,2013-06-28 07:15:00,
2013-06-28 00:20:00,55.5,54.9,30.14,SW,218,2.0,2.0,98,0.00,,,0.00,Wunderground v.1.15,2013-06-28 07:20:00,
2013-06-28 00:25:00,55.4,54.8,30.13,SW,218,2.0,3.0,98,0.00,,,0.00,Wunderground v.1.15,2013-06-28 07:25:00,
2013-06-28 00:31:00,55.5,54.9,30.13,SW,218,3.0,3.0,98,0.00,,,0.00,Wunderground v.1.15,2013-06-28 07:31:00,
2013-06-28 00:37:00,55.4,54.8,30.13,SW,218,3.0,4.0,98,0.00,,,0.00,Wunderground v.1.15,2013-06-28 07:37:00,
2013-06-28 00:43:00,55.4,54.8,30.13,SW,218,2.0,3.0,98,0.00,,,0.00,Wunderground v.1.15,2013-06-28 07:43:00,
2013-06-28 00:48:00,55.3,54.7,30.13,SW,218,3.0,4.0,98,0.00,,,0.00,Wunderground v.1.15,2013-06-28 07:48:00,
2013-06-28 00:54:00,55.3,54.7,30.13,SW,218,2.0,4.0,98,0.00,,,0.00,Wunderground v.1.15,2013-06-28 07:54:00,
2013-06-28 00:59:00,55.4,54.8,30.12,SSE,161,3.0,5.0,98,0.00,,,0.00,Wunderground v.1.15,2013-06-28 07:59:00,
2013-06-28 01:04:00,55.3,54.7,30.12,SSE,160,3.0,4.0,98,0.00,,,0.00,Wunderground v.1.15,2013-06-28 08:04:00,
2013-06-28 01:10:00,55.3,54.7,30.12,SSE,157,3.0,3.0,98,0.00,,,0.00,Wunderground v.1.15,2013-06-28 08:10:00,
2013-06-28 01:15:00,55.1,54.5,30.12,SSE,157,2.0,4.0,98,0.00,,,0.00,Wunderground v.1.15,2013-06-28 08:15:00,
2013-06-28 01:21:00,55.1,54.8,30.12,SSE,157,1.0,4.0,99,0.00,,,0.00,Wunderground v.1.15,2013-06-28 08:21:00,
2013-06-28 01:26:00,55.1,54.8,30.12,SSE,157,1.0,4.0,99,0.00,,,0.00,Wunderground v.1.15,2013-06-28 08:26:00,
2013-06-28 01:31:00,55.0,54.7,30.12,SSE,157,1.0,4.0,99,0.00,,,0.00,Wunderground v.1.15,2013-06-28 08:31:00,
2013-06-28 01:37:00,55.0,54.7,30.12,SSE,157,1.0,4.0,99,0.00,,,0.00,Wunderground v.1.15,2013-06-28 08:37:00,
2013-06-28 01:42:00,55.1,54.8,30.12,SSE,157,1.0,4.0,99,0.00,,,0.00,Wunderground v.1.15,2013-06-28 08:42:00,
2013-06-28 01:48:00,55.3,55.0,30.12,SSE,157,1.0,4.0,99,0.00,,,0.00,Wunderground v.1.15,2013-06-28 08:48:00,
2013-06-28 01:53:00,55.7,55.4,30.12,SSE,155,1.0,4.0,99,0.00,,,0.00,Wunderground v.1.15,2013-06-28 08:53:00,
2013-06-28 01:58:00,55.8,55.5,30.12,SSE,155,2.0,4.0,99,0.00,,,0.00,Wunderground v.1.15,2013-06-28 08:58:00,
2013-06-28 02:03:00,55.8,55.5,30.12,SSE,155,1.0,4.0,99,0.00,,,0.00,Wunderground v.1.15,2013-06-28 09:03:00,
2013-06-28 02:09:00,55.9,55.6,30.12,SSE,155,1.0,4.0,99,0.00,,,0.00,Wunderground v.1.15,2013-06-28 09:09:00,
2013-06-28 02:14:00,55.9,55.6,30.12,SSE,155,2.0,4.0,99,0.00,,,0.00,Wunderground v.1.15,2013-06-28 09:14:00,
2013-06-28 02:20:00,56.0,55.7,30.12,SSE,155,1.0,4.0,99,0.00,,,0.00,Wunderground v.1.15,2013-06-28 09:20:00,
2013-06-28 02:26:00,56.1,55.8,30.12,SSE,155,1.0,4.0,99,0.00,,,0.00,Wunderground v.1.15,2013-06-28 09:26:00,
2013-06-28 02:32:00,56.1,55.8,30.12,SSE,155,2.0,4.0,99,0.00,,,0.00,Wunderground v.1.15,2013-06-28 09:32:00,
2013-06-28 02:38:00,56.0,55.7,30.11,SSE,155,2.0,4.0,99,0.00,,,0.00,Wunderground v.1.15,2013-06-28 09:38:00,
2013-06-28 02:44:00,56.0,55.7,30.11,SSE,155,2.0,4.0,99,0.00,,,0.00,Wunderground v.1.15,2013-06-28 09:44:00,
2013-06-28 02:50:00,55.8,55.5,30.11,SSE,155,1.0,4.0,99,0.00,,,0.00,Wunderground v.1.15,2013-06-28 09:50:00,
2013-06-28 02:56:00,55.5,54.9,30.11,SSE,155,1.0,4.0,98,0.00,,,0.00,Wunderground v.1.15,2013-06-28 09:56:00,
2013-06-28 03:02:00,55.2,54.6,30.11,SSE,155,1.0,4.0,98,0.00,,,0.00,Wunderground v.1.15,2013-06-28 10:02:00,
2013-06-28 03:08:00,54.9,54.6,30.11,SSE,155,1.0,4.0,99,0.00,,,0.00,Wunderground v.1.15,2013-06-28 10:08:00,
2013-06-28 03:13:00,54.8,54.2,30.11,SSE,155,0.0,4.0,98,0.00,,,0.00,Wunderground v.1.15,2013-06-28 10:13:00,
2013-06-28 03:19:00,54.6,54.0,30.11,SSE,155,0.0,4.0,98,0.00,,,0.00,Wunderground v.1.15,2013-06-28 10:19:00,
2013-06-28 03:24:00,54.4,53.8,30.11,SSE,155,0.0,4.0,98,0.00,,,0.00,Wunderground v.1.15,2013-06-28 10:24:00,
2013-06-28 03:30:00,54.2,53.6,30.11,SSE,155,0.0,4.0,98,0.00,,,0.00,Wunderground v.1.15,2013-06-28 10:30:00,
2013-06-28 03:36:00,54.1,53.8,30.11,SSE,155,1.0,4.0,99,0.00,,,0.00,Wunderground v.1.15,2013-06-28 10:36:00,
2013-06-28 03:42:00,54.1,53.8,30.11,SSE,155,1.0,4.0,99,0.00,,,0.00,Wunderground v.1.15,2013-06-28 10:42:00,
2013-06-28 03:47:00,54.0,53.7,30.11,SSE,155,0.0,4.0,99,0.00,,,0.00,Wunderground v.1.15,2013-06-28 10:47:00,
2013-06-28 03:53:00,54.0,53.7,30.11,SSE,155,1.0,4.0,99,0.00,,,0.00,Wunderground v.1.15,2013-06-28 10:53:00,
2013-06-28 03:59:00,54.1,53.8,30.11,SSE,155,1.0,4.0,99,0.00,,,0.00,Wunderground v.1.15,2013-06-28 10:59:00,
2013-06-28 04:04:00,54.0,53.7,30.11,SSE,155,0.0,4.0,99,0.00,,,0.00,Wunderground v.1.15,2013-06-28 11:04:00,
2013-06-28 04:10:00,53.8,53.5,30.11,SSE,155,0.0,4.0,99,0.00,,,0.00,Wunderground v.1.15,2013-06-28 11:10:00,
2013-06-28 04:16:00,53.7,53.1,30.11,SSE,155,0.0,4.0,98,0.00,,,0.00,Wunderground v.1.15,2013-06-28 11:16:00,
2013-06-28 04:22:00,53.7,53.4,30.10,SSE,155,0.0,4.0,99,0.00,,,0.00,Wunderground v.1.15,2013-06-28 11:22:00,
2013-06-28 04:27:00,53.8,53.5,30.10,SSE,155,0.0,4.0,99,0.00,,,0.00,Wunderground v.1.15,2013-06-28 11:27:00,
2013-06-28 04:32:00,53.9,53.6,30.10,SSE,155,0.0,4.0,99,0.00,,,0.00,Wunderground v.1.15,2013-06-28 11:32:00,
2013-06-28 04:38:00,54.0,53.7,30.10,SSE,155,0.0,4.0,99,0.00,,,0.00,Wunderground v.1.15,2013-06-28 11:38:00,
2013-06-28 04:44:00,53.8,53.5,30.10,SSE,155,0.0,4.0,99,0.00,,,0.00,Wunderground v.1.15,2013-06-28 11:44:00,
2013-06-28 04:50:00,53.8,53.5,30.10,SSE,155,0.0,4.0,99,0.00,,,0.00,Wunderground v.1.15,2013-06-28 11:50:00,
2013-06-28 04:56:00,53.9,53.6,30.10,SSE,155,0.0,4.0,99,0.00,,,0.00,Wunderground v.1.15,2013-06-28 11:56:00,
2013-06-28 05:02:00,54.2,53.9,30.10,SSE,155,0.0,4.0,99,0.00,,,0.00,Wunderground v.1.15,2013-06-28 12:02:00,
2013-06-28 05:07:00,54.3,54.0,30.10,SSE,155,0.0,4.0,99,0.00,,,0.00,Wunderground v.1.15,2013-06-28 12:07:00,
2013-06-28 05:12:00,54.3,54.0,30.10,SSE,155,0.0,4.0,99,0.00,,,0.00,Wunderground v.1.15,2013-06-28 12:12:00,
2013-06-28 05:18:00,54.0,53.4,30.10,SSE,155,0.0,4.0,98,0.00,,,0.00,Wunderground v.1.15,2013-06-28 12:18:00,
2013-06-28 05:24:00,53.7,53.1,30.10,SSE,155,0.0,4.0,98,0.00,,,0.00,Wunderground v.1.15,2013-06-28 12:24:00,
2013-06-28 05:29:00,53.5,52.9,30.10,SSE,155,0.0,4.0,98,0.00,,,0.00,Wunderground v.1.15,2013-06-28 12:29:00,
2013-06-28 05:34:00,53.6,53.3,30.10,SSE,155,0.0,4.0,99,0.00,,,0.00,Wunderground v.1.15,2013-06-28 12:34:00,
2013-06-28 05:39:00,53.7,53.4,30.10,SSE,155,0.0,4.0,99,0.00,,,0.00,Wunderground v.1.15,2013-06-28 12:39:00,
2013-06-28 05:45:00,53.8,53.5,30.10,SSE,155,0.0,4.0,99,0.00,,,0.00,Wunderground v.1.15,2013-06-28 12:45:00,
2013-06-28 05:50:00,54.0,53.7,30.10,SSE,155,0.0,4.0,99,0.00,,,0.00,Wunderground v.1.15,2013-06-28 12:50:00,
2013-06-28 05:55:00,54.5,54.2,30.10,SSE,155,1.0,4.0,99,0.00,,,0.00,Wunderground v.1.15,2013-06-28 12:55:00,
2013-06-28 06:01:00,55.1,54.8,30.10,SSE,155,1.0,4.0,99,0.00,,,0.00,Wunderground v.1.15,2013-06-28 13:01:00,
2013-06-28 06:06:00,55.6,55.3,30.10,SSE,155,1.0,4.0,99,0.00,,,0.00,Wunderground v.1.15,2013-06-28 13:06:00,
2013-06-28 06:11:00,56.0,55.7,30.10,SSE,155,0.0,4.0,99,0.00,,,0.01,Wunderground v.1.15,2013-06-28 13:11:00,
2013-06-28 06:17:00,56.2,55.9,30.10,SSE,155,0.0,4.0,99,0.00,,,0.01,Wunderground v.1.15,2013-06-28 13:17:00,
2013-06-28 06:22:00,56.4,56.1,30.10,SSE,155,0.0,4.0,99,0.00,,,0.01,Wunderground v.1.15,2013-06-28 13:22:00,
2013-06-28 06:27:00,56.7,56.4,30.10,SSE,155,0.0,4.0,99,0.00,,,0.01,Wunderground v.1.15,2013-06-28 13:27:00,
2013-06-28 06:33:00,57.0,56.7,30.10,SSE,155,0.0,4.0,99,0.00,,,0.01,Wunderground v.1.15,2013-06-28 13:33:00,
2013-06-28 06:39:00,57.4,57.1,30.10,SSE,155,0.0,4.0,99,0.00,,,0.01,Wunderground v.1.15,2013-06-28 13:39:00,
2013-06-28 06:45:00,57.7,57.4,30.10,SSE,155,0.0,4.0,99,0.00,,,0.01,Wunderground v.1.15,2013-06-28 13:45:00,
2013-06-28 06:51:00,58.2,57.9,30.10,SSE,155,0.0,4.0,99,0.00,,,0.01,Wunderground v.1.15,2013-06-28 13:51:00,
2013-06-28 06:56:00,58.7,58.4,30.10,SSE,155,0.0,4.0,99,0.00,,,0.01,Wunderground v.1.15,2013-06-28 13:56:00,
2013-06-28 07:02:00,58.5,57.9,30.10,SSE,155,0.0,4.0,98,0.00,,,0.01,Wunderground v.1.15,2013-06-28 14:02:00,
2013-06-28 07:08:00,57.9,57.3,30.10,SSE,155,0.0,4.0,98,0.00,,,0.01,Wunderground v.1.15,2013-06-28 14:08:00,
2013-06-28 07:13:00,57.7,57.1,30.10,SSE,155,1.0,4.0,98,0.00,,,0.01,Wunderground v.1.15,2013-06-28 14:13:00,
2013-06-28 07:19:00,57.5,56.9,30.10,SSE,155,1.0,4.0,98,0.00,,,0.01,Wunderground v.1.15,2013-06-28 14:19:00,
2013-06-28 07:24:00,57.6,57.3,30.10,SSE,155,1.0,4.0,99,0.00,,,0.01,Wunderground v.1.15,2013-06-28 14:24:00,
2013-06-28 07:29:00,57.8,57.5,30.10,SSE,155,1.0,4.0,99,0.00,,,0.01,Wunderground v.1.15,2013-06-28 14:29:00,
2013-06-28 07:35:00,58.1,57.8,30.10,SSE,155,1.0,4.0,99,0.00,,,0.01,Wunderground v.1.15,2013-06-28 14:35:00,
2013-06-28 07:40:00,58.3,58.0,30.10,SSE,155,0.0,4.0,99,0.00,,,0.01,Wunderground v.1.15,2013-06-28 14:40:00,
2013-06-28 07:46:00,58.8,58.5,30.10,SSE,155,0.0,4.0,99,0.00,,,0.01,Wunderground v.1.15,2013-06-28 14:46:00,
2013-06-28 07:51:00,58.9,58.6,30.10,SSE,155,0.0,4.0,99,0.00,,,0.01,Wunderground v.1.15,2013-06-28 14:51:00,
2013-06-28 07:57:00,58.9,58.6,30.11,SSE,155,0.0,4.0,99,0.00,,,0.01,Wunderground v.1.15,2013-06-28 14:57:00,
2013-06-28 08:02:00,58.7,58.1,30.11,SSE,155,0.0,4.0,98,0.00,,,0.01,Wunderground v.1.15,2013-06-28 15:02:00,
2013-06-28 08:08:00,58.7,58.1,30.11,SSE,155,0.0,4.0,98,0.00,,,0.01,Wunderground v.1.15,2013-06-28 15:08:00,
2013-06-28 08:14:00,58.7,58.1,30.11,SSE,155,0.0,4.0,98,0.00,,,0.01,Wunderground v.1.15,2013-06-28 15:14:00,
2013-06-28 08:19:00,58.8,58.2,30.11,SSE,155,0.0,4.0,98,0.00,,,0.01,Wunderground v.1.15,2013-06-28 15:19:00,
2013-06-28 08:25:00,58.8,58.2,30.11,SSE,155,0.0,4.0,98,0.00,,,0.01,Wunderground v.1.15,2013-06-28 15:25:00,
2013-06-28 08:31:00,59.1,58.5,30.11,SSE,155,0.0,4.0,98,0.00,,,0.01,Wunderground v.1.15,2013-06-28 15:31:00,
2013-06-28 08:36:00,59.1,58.5,30.11,SSE,155,1.0,4.0,98,0.00,,,0.01,Wunderground v.1.15,2013-06-28 15:36:00,
2013-06-28 08:41:00,58.8,58.2,30.11,SSE,155,3.0,4.0,98,0.00,,,0.01,Wunderground v.1.15,2013-06-28 15:41:00,
2013-06-28 08:47:00,58.9,58.3,30.11,SSE,155,3.0,4.0,98,0.00,,,0.01,Wunderground v.1.15,2013-06-28 15:47:00,
2013-06-28 08:53:00,58.9,58.3,30.11,SSE,155,3.0,4.0,98,0.00,,,0.01,Wunderground v.1.15,2013-06-28 15:53:00,
2013-06-28 08:58:00,59.0,58.4,30.10,SSE,155,3.0,4.0,98,0.00,,,0.01,Wunderground v.1.15,2013-06-28 15:58:00,
2013-06-28 09:04:00,58.8,58.0,30.11,SSE,155,4.0,5.0,97,0.00,,,0.01,Wunderground v.1.15,2013-06-28 16:04:00,
2013-06-28 09:10:00,58.7,57.9,30.11,SSE,155,4.0,4.0,97,0.00,,,0.01,Wunderground v.1.15,2013-06-28 16:10:00,
2013-06-28 09:15:00,58.6,57.8,30.11,SSE,160,4.0,5.0,97,0.00,,,0.01,Wunderground v.1.15,2013-06-28 16:15:00,
2013-06-28 09:21:00,58.8,58.0,30.11,SSE,164,5.0,6.0,97,0.00,,,0.01,Wunderground v.1.15,2013-06-28 16:21:00,
2013-06-28 09:27:00,58.7,57.9,30.11,SSE,164,5.0,6.0,97,0.00,,,0.01,Wunderground v.1.15,2013-06-28 16:27:00,
2013-06-28 09:33:00,59.3,58.4,30.11,SSE,163,4.0,5.0,97,0.00,,,0.01,Wunderground v.1.15,2013-06-28 16:33:00,
2013-06-28 09:38:00,59.6,58.7,30.11,SSE,164,4.0,5.0,97,0.00,,,0.01,Wunderground v.1.15,2013-06-28 16:38:00,
2013-06-28 09:44:00,59.6,58.5,30.11,SSW,198,5.0,6.0,96,0.00,,,0.01,Wunderground v.1.15,2013-06-28 16:44:00,
2013-06-28 09:49:00,59.8,58.7,30.11,SSW,198,5.0,6.0,96,0.00,,,0.01,Wunderground v.1.15,2013-06-28 16:49:00,
2013-06-28 09:55:00,59.6,58.5,30.12,SSW,198,5.0,6.0,96,0.00,,,0.01,Wunderground v.1.15,2013-06-28 16:55:00,
2013-06-28 10:00:00,59.6,58.5,30.12,SSW,198,4.0,5.0,96,0.00,,,0.01,Wunderground v.1.15,2013-06-28 17:00:00,
2013-06-28 10:05:00,59.7,58.6,30.12,SSW,198,4.0,5.0,96,0.00,,,0.01,Wunderground v.1.15,2013-06-28 17:05:00,
2013-06-28 10:10:00,59.6,58.2,30.12,SSW,198,4.0,4.0,95,0.00,,,0.01,Wunderground v.1.15,2013-06-28 17:10:00,
2013-06-28 10:15:00,59.2,57.8,30.12,SSW,198,4.0,6.0,95,0.00,,,0.01,Wunderground v.1.15,2013-06-28 17:15:00,
2013-06-28 10:20:00,59.6,58.5,30.12,SSW,198,4.0,4.0,96,0.00,,,0.01,Wunderground v.1.15,2013-06-28 17:20:00,
2013-06-28 10:26:00,59.7,58.6,30.12,SSW,198,3.0,4.0,96,0.00,,,0.01,Wunderground v.1.15,2013-06-28 17:26:00,
2013-06-28 10:31:00,59.7,58.6,30.12,SSW,198,2.0,4.0,96,0.00,,,0.01,Wunderground v.1.15,2013-06-28 17:31:00,
2013-06-28 10:36:00,59.7,58.6,30.12,SSW,198,2.0,4.0,96,0.00,,,0.01,Wunderground v.1.15,2013-06-28 17:36:00,
2013-06-28 10:41:00,59.5,58.4,30.12,SSW,198,2.0,5.0,96,0.00,,,0.01,Wunderground v.1.15,2013-06-28 17:41:00,
2013-06-28 10:46:00,59.7,58.6,30.12,SSW,198,2.0,5.0,96,0.00,,,0.01,Wunderground v.1.15,2013-06-28 17:46:00,
2013-06-28 10:51:00,60.3,59.2,30.12,SSW,198,2.0,3.0,96,0.00,,,0.01,Wunderground v.1.15,2013-06-28 17:51:00,
2013-06-28 10:56:00,61.1,60.0,30.12,SSW,198,2.0,4.0,96,0.00,,,0.01,Wunderground v.1.15,2013-06-28 17:56:00,
2013-06-28 11:02:00,61.3,59.9,30.12,SSW,198,3.0,5.0,95,0.00,,,0.01,Wunderground v.1.15,2013-06-28 18:02:00,
2013-06-28 11:07:00,61.3,59.9,30.12,SSW,198,3.0,5.0,95,0.00,,,0.01,Wunderground v.1.15,2013-06-28 18:07:00,
2013-06-28 11:12:00,61.6,60.2,30.12,SSW,198,4.0,5.0,95,0.00,,,0.01,Wunderground v.1.15,2013-06-28 18:12:00,
2013-06-28 11:18:00,61.6,60.2,30.12,SSW,198,4.0,6.0,95,0.00,,,0.01,Wunderground v.1.15,2013-06-28 18:18:00,
2013-06-28 11:23:00,61.5,59.8,30.12,SSW,198,4.0,5.0,94,0.00,,,0.01,Wunderground v.1.15,2013-06-28 18:23:00,
2013-06-28 11:28:00,61.5,59.8,30.12,SSW,198,5.0,6.0,94,0.00,,,0.01,Wunderground v.1.15,2013-06-28 18:28:00,
2013-06-28 11:34:00,61.4,59.7,30.12,SSW,198,4.0,5.0,94,0.00,,,0.01,Wunderground v.1.15,2013-06-28 18:34:00,
2013-06-28 11:39:00,61.6,59.9,30.12,SSW,198,4.0,5.0,94,0.00,,,0.01,Wunderground v.1.15,2013-06-28 18:39:00,
2013-06-28 11:45:00,61.1,59.1,30.12,SSW,198,5.0,6.0,93,0.00,,,0.01,Wunderground v.1.15,2013-06-28 18:45:00,
2013-06-28 11:51:00,61.3,59.6,30.13,SSW,198,5.0,6.0,94,0.00,,,0.01,Wunderground v.1.15,2013-06-28 18:51:00,
2013-06-28 11:56:00,61.2,59.5,30.12,SSW,198,5.0,6.0,94,0.00,,,0.01,Wunderground v.1.15,2013-06-28 18:56:00,
2013-06-28 12:01:00,61.4,59.7,30.12,SSW,198,5.0,6.0,94,0.00,,,0.01,Wunderground v.1.15,2013-06-28 19:01:00,
2013-06-28 12:06:00,61.4,59.4,30.12,SSW,198,5.0,7.0,93,0.00,,,0.01,Wunderground v.1.15,2013-06-28 19:06:00,
2013-06-28 12:12:00,61.2,59.5,30.13,SSW,198,4.0,5.0,94,0.00,,,0.01,Wunderground v.1.15,2013-06-28 19:12:00,
2013-06-28 12:17:00,61.5,59.8,30.12,SSW,198,4.0,5.0,94,0.00,,,0.01,Wunderground v.1.15,2013-06-28 19:17:00,
2013-06-28 12:23:00,61.7,59.7,30.12,SSW,198,3.0,4.0,93,0.00,,,0.01,Wunderground v.1.15,2013-06-28 19:23:00,
2013-06-28 12:28:00,61.6,59.6,30.12,SSW,198,3.0,4.0,93,0.00,,,0.01,Wunderground v.1.15,2013-06-28 19:28:00,
2013-06-28 12:34:00,61.8,59.8,30.12,SSW,198,3.0,4.0,93,0.00,,,0.01,Wunderground v.1.15,2013-06-28 19:34:00,
2013-06-28 12:40:00,61.7,60.0,30.12,SSW,198,3.0,4.0,94,0.00,,,0.01,Wunderground v.1.15,2013-06-28 19:40:00,
2013-06-28 12:46:00,61.6,59.6,30.12,SSW,198,4.0,5.0,93,0.00,,,0.01,Wunderground v.1.15,2013-06-28 19:46:00,
2013-06-28 12:51:00,61.9,60.2,30.12,SSW,198,4.0,6.0,94,0.00,,,0.01,Wunderground v.1.15,2013-06-28 19:51:00,
2013-06-28 12:57:00,62.0,60.3,30.12,SSW,198,4.0,6.0,94,0.00,,,0.01,Wunderground v.1.15,2013-06-28 19:57:00,
2013-06-28 13:02:00,62.0,60.0,30.12,SSW,198,4.0,5.0,93,0.00,,,0.01,Wunderground v.1.15,2013-06-28 20:02:00,
2013-06-28 13:07:00,62.0,60.0,30.12,SSW,198,4.0,5.0,93,0.00,,,0.01,Wunderground v.1.15,2013-06-28 20:07:00,
2013-06-28 13:13:00,62.1,60.4,30.12,SSW,198,4.0,6.0,94,0.00,,,0.01,Wunderground v.1.15,2013-06-28 20:13:00,
2013-06-28 13:19:00,62.0,60.3,30.12,SSW,198,5.0,6.0,94,0.00,,,0.01,Wunderground v.1.15,2013-06-28 20:19:00,
2013-06-28 13:24:00,62.0,60.0,30.12,SSW,198,5.0,6.0,93,0.00,,,0.01,Wunderground v.1.15,2013-06-28 20:24:00,
2013-06-28 13:30:00,62.0,60.0,30.12,SSW,198,5.0,6.0,93,0.00,,,0.01,Wunderground v.1.15,2013-06-28 20:30:00,
2013-06-28 13:35:00,61.9,59.9,30.12,SSW,198,5.0,6.0,93,0.00,,,0.01,Wunderground v.1.15,2013-06-28 20:35:00,
2013-06-28 13:41:00,62.0,60.0,30.12,SSW,198,4.0,4.0,93,0.00,,,0.01,Wunderground v.1.15,2013-06-28 20:41:00,
2013-06-28 13:47:00,62.1,60.1,30.12,SSW,198,4.0,5.0,93,0.00,,,0.01,Wunderground v.1.15,2013-06-28 20:47:00,
2013-06-28 13:53:00,62.3,60.2,30.12,SSW,198,4.0,4.0,93,0.00,,,0.01,Wunderground v.1.15,2013-06-28 20:53:00,
2013-06-28 13:59:00,62.3,60.2,30.12,SSW,198,4.0,5.0,93,0.00,,,0.01,Wunderground v.1.15,2013-06-28 20:59:00,
2013-06-28 14:05:00,62.1,60.1,30.11,SSW,198,4.0,5.0,93,0.00,,,0.01,Wunderground v.1.15,2013-06-28 21:05:00,
2013-06-28 14:10:00,62.3,60.2,30.11,SSW,198,3.0,4.0,93,0.00,,,0.01,Wunderground v.1.15,2013-06-28 21:10:00,
2013-06-28 14:15:00,62.1,60.1,30.11,SSW,198,3.0,4.0,93,0.00,,,0.01,Wunderground v.1.15,2013-06-28 21:15:00,
2013-06-28 14:21:00,62.6,60.5,30.11,SSW,198,3.0,4.0,93,0.00,,,0.01,Wunderground v.1.15,2013-06-28 21:21:00,
2013-06-28 14:27:00,62.7,60.6,30.11,SSW,198,3.0,4.0,93,0.00,,,0.01,Wunderground v.1.15,2013-06-28 21:27:00,
2013-06-28 14:33:00,62.9,60.8,30.10,SSW,198,3.0,4.0,93,0.00,,,0.01,Wunderground v.1.15,2013-06-28 21:33:00,
2013-06-28 14:38:00,62.5,60.4,30.10,SSW,198,3.0,4.0,93,0.00,,,0.01,Wunderground v.1.15,2013-06-28 21:38:00,
2013-06-28 14:44:00,62.6,60.2,30.10,SSW,198,3.0,4.0,92,0.00,,,0.01,Wunderground v.1.15,2013-06-28 21:44:00,
2013-06-28 14:49:00,62.4,60.3,30.10,SSW,198,4.0,4.0,93,0.00,,,0.01,Wunderground v.1.15,2013-06-28 21:49:00,
2013-06-28 14:54:00,62.8,60.7,30.10,SSW,198,4.0,4.0,93,0.00,,,0.01,Wunderground v.1.15,2013-06-28 21:54:00,
2013-06-28 15:00:00,62.9,60.8,30.10,SSW,198,4.0,4.0,93,0.00,,,0.01,Wunderground v.1.15,2013-06-28 22:00:00,
2013-06-28 15:05:00,63.2,61.1,30.09,SSW,198,4.0,4.0,93,0.00,,,0.01,Wunderground v.1.15,2013-06-28 22:05:00,
2013-06-28 15:11:00,63.2,61.1,30.09,SSW,198,3.0,4.0,93,0.00,,,0.01,Wunderground v.1.15,2013-06-28 22:11:00,
2013-06-28 15:16:00,63.1,60.7,30.09,SSW,198,3.0,4.0,92,0.00,,,0.01,Wunderground v.1.15,2013-06-28 22:16:00,
2013-06-28 15:21:00,63.4,61.0,30.09,SSW,198,3.0,5.0,92,0.00,,,0.01,Wunderground v.1.15,2013-06-28 22:21:00,
2013-06-28 15:27:00,63.5,61.1,30.09,SSW,198,4.0,5.0,92,0.00,,,0.01,Wunderground v.1.15,2013-06-28 22:27:00,
2013-06-28 15:33:00,63.6,61.2,30.09,SSW,198,3.0,4.0,92,0.00,,,0.01,Wunderground v.1.15,2013-06-28 22:33:00,
2013-06-28 15:39:00,63.3,60.9,30.09,SSW,198,3.0,4.0,92,0.00,,,0.01,Wunderground v.1.15,2013-06-28 22:39:00,
2013-06-28 15:45:00,63.3,60.6,30.09,SSW,198,3.0,4.0,91,0.00,,,0.01,Wunderground v.1.15,2013-06-28 22:45:00,
2013-06-28 15:50:00,63.5,61.1,30.09,SSW,198,3.0,4.0,92,0.00,,,0.01,Wunderground v.1.15,2013-06-28 22:50:00,
2013-06-28 15:56:00,63.6,61.2,30.09,SSW,198,3.0,5.0,92,0.00,,,0.01,Wunderground v.1.15,2013-06-28 22:56:00,
2013-06-28 16:02:00,63.6,61.2,30.08,SSW,198,3.0,4.0,92,0.00,,,0.01,Wunderground v.1.15,2013-06-28 23:02:00,
2013-06-28 16:07:00,63.8,61.4,30.08,SSW,198,3.0,4.0,92,0.00,,,0.01,Wunderground v.1.15,2013-06-28 23:07:00,
2013-06-28 16:13:00,63.7,61.0,30.08,SSW,198,3.0,4.0,91,0.00,,,0.01,Wunderground v.1.15,2013-06-28 23:13:00,
2013-06-28 16:18:00,63.5,61.1,30.08,SSW,198,3.0,4.0,92,0.00,,,0.01,Wunderground v.1.15,2013-06-28 23:18:00,
2013-06-28 16:24:00,63.6,61.2,30.08,SSW,198,3.0,4.0,92,0.00,,,0.01,Wunderground v.1.15,2013-06-28 23:24:00,
2013-06-28 16:29:00,63.9,61.5,30.09,SSW,198,4.0,5.0,92,0.00,,,0.01,Wunderground v.1.15,2013-06-28 23:29:00,
2013-06-28 16:34:00,64.0,61.3,30.09,SSW,198,4.0,4.0,91,0.00,,,0.01,Wunderground v.1.15,2013-06-28 23:34:00,
2013-06-28 16:40:00,64.1,61.4,30.09,SSW,198,4.0,4.0,91,0.00,,,0.01,Wunderground v.1.15,2013-06-28 23:40:00,
2013-06-28 16:46:00,64.0,61.3,30.09,SSW,198,4.0,4.0,91,0.00,,,0.01,Wunderground v.1.15,2013-06-28 23:46:00,
2013-06-28 16:52:00,64.1,61.7,30.08,SSW,198,4.0,4.0,92,0.00,,,0.01,Wunderground v.1.15,2013-06-28 23:52:00,
2013-06-28 16:58:00,64.0,61.3,30.08,SSW,198,3.0,4.0,91,0.00,,,0.01,Wunderground v.1.15,2013-06-28 23:58:00,
2013-06-28 17:04:00,63.9,61.5,30.09,SSW,198,3.0,4.0,92,0.00,,,0.01,Wunderground v.1.15,2013-06-29 00:04:00,
2013-06-28 17:09:00,64.2,61.8,30.09,SSW,198,3.0,5.0,92,0.00,,,0.01,Wunderground v.1.15,2013-06-29 00:09:00,
2013-06-28 17:14:00,63.9,61.2,30.09,SSW,198,4.0,4.0,91,0.00,,,0.01,Wunderground v.1.15,2013-06-29 00:14:00,
2013-06-28 17:20:00,64.0,61.3,30.09,SSW,198,3.0,3.0,91,0.00,,,0.01,Wunderground v.1.15,2013-06-29 00:20:00,
2013-06-28 17:26:00,64.0,61.3,30.09,SSW,198,3.0,4.0,91,0.00,,,0.01,Wunderground v.1.15,2013-06-29 00:26:00,
2013-06-28 17:32:00,64.0,61.3,30.09,SSW,198,3.0,5.0,91,0.00,,,0.01,Wunderground v.1.15,2013-06-29 00:32:00,
2013-06-28 17:37:00,64.0,61.6,30.09,SSW,198,4.0,5.0,92,0.00,,,0.01,Wunderground v.1.15,2013-06-29 00:37:00,
2013-06-28 17:43:00,64.1,61.7,30.09,SSW,198,5.0,5.0,92,0.00,,,0.01,Wunderground v.1.15,2013-06-29 00:43:00,
2013-06-28 17:49:00,64.2,61.8,30.09,SSW,198,4.0,5.0,92,0.00,,,0.01,Wunderground v.1.15,2013-06-29 00:49:00,
2013-06-28 17:54:00,64.2,61.8,30.09,SSW,198,4.0,4.0,92,0.00,,,0.01,Wunderground v.1.15,2013-06-29 00:54:00,
2013-06-28 17:59:00,64.0,61.3,30.09,SSW,198,4.0,5.0,91,0.00,,,0.01,Wunderground v.1.15,2013-06-29 00:59:00,
2013-06-28 18:05:00,64.0,61.6,30.09,SSW,198,4.0,5.0,92,0.00,,,0.01,Wunderground v.1.15,2013-06-29 01:05:00,
2013-06-28 18:10:00,64.2,61.8,30.09,SSW,198,3.0,3.0,92,0.00,,,0.01,Wunderground v.1.15,2013-06-29 01:10:00,
2013-06-28 18:16:00,64.1,61.4,30.09,SSW,198,2.0,4.0,91,0.00,,,0.01,Wunderground v.1.15,2013-06-29 01:16:00,
2013-06-28 18:22:00,64.0,61.3,30.09,SSW,198,3.0,4.0,91,0.00,,,0.01,Wunderground v.1.15,2013-06-29 01:22:00,
2013-06-28 18:27:00,64.0,61.3,30.09,SSW,198,3.0,4.0,91,0.00,,,0.01,Wunderground v.1.15,2013-06-29 01:27:00,
2013-06-28 18:33:00,64.3,61.9,30.09,SSW,198,2.0,4.0,92,0.00,,,0.01,Wunderground v.1.15,2013-06-29 01:33:00,
2013-06-28 18:38:00,64.5,61.8,30.09,SSW,198,2.0,4.0,91,0.00,,,0.01,Wunderground v.1.15,2013-06-29 01:38:00,
2013-06-28 18:44:00,64.5,61.5,30.09,SSW,198,2.0,4.0,90,0.00,,,0.01,Wunderground v.1.15,2013-06-29 01:44:00,
2013-06-28 18:49:00,64.4,61.4,30.09,SSW,198,2.0,4.0,90,0.00,,,0.01,Wunderground v.1.15,2013-06-29 01:49:00,
2013-06-28 18:55:00,64.5,61.5,30.09,SSW,198,2.0,4.0,90,0.00,,,0.01,Wunderground v.1.15,2013-06-29 01:55:00,
2013-06-28 19:00:00,64.6,61.6,30.10,SSW,198,2.0,2.0,90,0.00,,,0.01,Wunderground v.1.15,2013-06-29 02:00:00,
2013-06-28 19:05:00,65.0,62.0,30.09,SSW,198,2.0,4.0,90,0.00,,,0.01,Wunderground v.1.15,2013-06-29 02:05:00,
2013-06-28 19:10:00,65.2,62.2,30.10,SSW,198,2.0,4.0,90,0.00,,,0.01,Wunderground v.1.15,2013-06-29 02:10:00,
2013-06-28 19:16:00,65.4,62.1,30.10,SSW,198,2.0,4.0,89,0.00,,,0.01,Wunderground v.1.15,2013-06-29 02:16:00,
2013-06-28 19:21:00,65.4,62.1,30.10,SSW,198,2.0,4.0,89,0.00,,,0.01,Wunderground v.1.15,2013-06-29 02:21:00,
2013-06-28 19:27:00,65.3,62.0,30.10,SSW,198,2.0,4.0,89,0.00,,,0.01,Wunderground v.1.15,2013-06-29 02:27:00,
2013-06-28 19:32:00,64.9,61.3,30.10,SSW,198,2.0,4.0,88,0.00,,,0.01,Wunderground v.1.15,2013-06-29 02:32:00,
2013-06-28 19:38:00,65.0,61.7,30.10,SSW,198,2.0,4.0,89,0.00,,,0.01,Wunderground v.1.15,2013-06-29 02:38:00,
2013-06-28 19:44:00,64.9,61.6,30.10,SSW,198,1.0,4.0,89,0.00,,,0.01,Wunderground v.1.15,2013-06-29 02:44:00,
2013-06-28 19:50:00,64.6,61.3,30.10,SSW,198,1.0,1.0,89,0.00,,,0.01,Wunderground v.1.15,2013-06-29 02:50:00,
2013-06-28 19:55:00,64.3,61.0,30.10,SSW,198,1.0,4.0,89,0.00,,,0.01,Wunderground v.1.15,2013-06-29 02:55:00,
2013-06-28 20:00:00,64.1,60.8,30.10,SSW,198,0.0,4.0,89,0.00,,,0.01,Wunderground v.1.15,2013-06-29 03:00:00,
2013-06-28 20:06:00,63.9,60.9,30.10,SSW,198,0.0,4.0,90,0.00,,,0.01,Wunderground v.1.15,2013-06-29 03:06:00,
2013-06-28 20:12:00,63.8,60.8,30.10,SSW,198,0.0,4.0,90,0.00,,,0.01,Wunderground v.1.15,2013-06-29 03:12:00,
2013-06-28 20:18:00,63.6,60.6,30.10,SSW,198,1.0,4.0,90,0.00,,,0.01,Wunderground v.1.15,2013-06-29 03:18:00,
2013-06-28 20:24:00,63.6,60.6,30.10,SSW,198,2.0,4.0,90,0.00,,,0.01,Wunderground v.1.15,2013-06-29 03:24:00,
2013-06-28 20:30:00,63.6,60.6,30.10,SSW,198,2.0,2.0,90,0.00,,,0.01,Wunderground v.1.15,2013-06-29 03:30:00,
2013-06-28 20:36:00,63.4,60.7,30.10,SSW,198,2.0,4.0,91,0.00,,,0.01,Wunderground v.1.15,2013-06-29 03:36:00,
2013-06-28 20:41:00,63.3,60.6,30.11,SSW,198,1.0,4.0,91,0.00,,,0.01,Wunderground v.1.15,2013-06-29 03:41:00,
2013-06-28 20:47:00,63.2,60.5,30.11,SSW,198,1.0,4.0,91,0.00,,,0.01,Wunderground v.1.15,2013-06-29 03:47:00,
2013-06-28 20:53:00,63.1,60.4,30.11,SSW,198,0.0,4.0,91,0.00,,,0.01,Wunderground v.1.15,2013-06-29 03:53:00,
2013-06-28 20:59:00,63.0,60.3,30.11,SSW,198,0.0,4.0,91,0.00,,,0.01,Wunderground v.1.15,2013-06-29 03:59:00,
2013-06-28 21:01:00,62.9,60.2,30.10,SSW,198,0.0,4.0,91,0.00,,,0.01,Wunderground v.1.15,2013-06-29 04:01:00,
2013-06-28 21:02:00,62.9,60.2,30.11,SSW,198,0.0,4.0,91,0.00,,,0.01,Wunderground v.1.15,2013-06-29 04:02:00,
2013-06-28 21:04:00,62.9,60.2,30.11,SSW,198,0.0,4.0,91,0.00,,,0.01,Wunderground v.1.15,2013-06-29 04:04:00,
2013-06-28 21:06:00,62.8,60.1,30.11,SSW,198,0.0,4.0,91,0.00,,,0.01,Wunderground v.1.15,2013-06-29 04:06:00,
2013-06-28 21:11:00,62.7,60.0,30.11,SSW,198,0.0,4.0,91,0.00,,,0.01,Wunderground v.1.15,2013-06-29 04:11:00,
2013-06-28 21:16:00,62.5,59.8,30.10,SSW,198,0.0,4.0,91,0.00,,,0.01,Wunderground v.1.15,2013-06-29 04:16:00,
2013-06-28 21:22:00,62.3,59.9,30.10,SSW,198,0.0,4.0,92,0.00,,,0.01,Wunderground v.1.15,2013-06-29 04:22:00,
2013-06-28 21:28:00,62.2,59.8,30.10,SSW,198,0.0,4.0,92,0.00,,,0.01,Wunderground v.1.15,2013-06-29 04:28:00,
2013-06-28 21:34:00,62.0,59.6,30.11,SSW,198,1.0,4.0,92,0.00,,,0.01,Wunderground v.1.15,2013-06-29 04:34:00,
2013-06-28 21:40:00,61.9,59.5,30.11,SSW,198,0.0,4.0,92,0.00,,,0.01,Wunderground v.1.15,2013-06-29 04:40:00,
2013-06-28 21:46:00,61.8,59.5,30.10,SSW,198,1.0,4.0,92,0.00,,,0.01,Wunderground v.1.15,2013-06-29 04:46:00,
2013-06-28 21:51:00,61.6,59.3,30.11,SSW,198,1.0,2.0,92,0.00,,,0.01,Wunderground v.1.15,2013-06-29 04:51:00,
2013-06-28 21:57:00,61.6,59.6,30.11,SSW,198,1.0,4.0,93,0.00,,,0.01,Wunderground v.1.15,2013-06-29 04:57:00,
2013-06-28 22:03:00,61.5,59.5,30.11,SSW,198,2.0,4.0,93,0.00,,,0.01,Wunderground v.1.15,2013-06-29 05:03:00,
2013-06-28 22:08:00,61.4,59.4,30.11,SSW,198,2.0,4.0,93,0.00,,,0.01,Wunderground v.1.15,2013-06-29 05:08:00,
2013-06-28 22:14:00,61.4,59.4,30.12,SSW,198,2.0,4.0,93,0.00,,,0.01,Wunderground v.1.15,2013-06-29 05:14:00,
2013-06-28 22:19:00,61.4,59.4,30.12,SSW,198,1.0,4.0,93,0.00,,,0.01,Wunderground v.1.15,2013-06-29 05:19:00,
2013-06-28 22:25:00,61.4,59.4,30.12,SSW,198,1.0,4.0,93,0.00,,,0.01,Wunderground v.1.15,2013-06-29 05:25:00,
2013-06-28 22:31:00,61.4,59.4,30.11,SSW,198,1.0,4.0,93,0.00,,,0.01,Wunderground v.1.15,2013-06-29 05:31:00,
2013-06-28 22:36:00,61.3,59.3,30.12,SSW,198,1.0,4.0,93,0.00,,,0.01,Wunderground v.1.15,2013-06-29 05:36:00,
2013-06-28 22:42:00,61.2,59.2,30.12,SSW,198,0.0,4.0,93,0.00,,,0.01,Wunderground v.1.15,2013-06-29 05:42:00,
2013-06-28 22:48:00,60.8,58.8,30.12,SSW,198,1.0,4.0,93,0.00,,,0.01,Wunderground v.1.15,2013-06-29 05:48:00,
2013-06-28 22:53:00,60.7,58.7,30.11,SSW,198,1.0,4.0,93,0.00,,,0.01,Wunderground v.1.15,2013-06-29 05:53:00,
2013-06-28 22:58:00,60.6,58.9,30.11,SSW,198,1.0,4.0,94,0.00,,,0.01,Wunderground v.1.15,2013-06-29 05:58:00,
2013-06-28 23:04:00,60.5,58.8,30.11,SSW,198,1.0,4.0,94,0.00,,,0.01,Wunderground v.1.15,2013-06-29 06:04:00,
2013-06-28 23:09:00,60.5,58.8,30.11,SSW,198,1.0,4.0,94,0.00,,,0.01,Wunderground v.1.15,2013-06-29 06:09:00,
2013-06-28 23:14:00,60.3,58.6,30.11,SSW,198,2.0,4.0,94,0.00,,,0.01,Wunderground v.1.15,2013-06-29 06:14:00,
2013-06-28 23:20:00,60.1,58.4,30.11,SSW,198,1.0,1.0,94,0.00,,,0.01,Wunderground v.1.15,2013-06-29 06:20:00,
2013-06-28 23:25:00,59.8,58.1,30.11,SSW,198,0.0,4.0,94,0.00,,,0.01,Wunderground v.1.15,2013-06-29 06:25:00,
2013-06-28 23:30:00,59.6,57.9,30.11,SSW,198,0.0,4.0,94,0.00,,,0.01,Wunderground v.1.15,2013-06-29 06:30:00,
2013-06-28 23:36:00,59.5,57.8,30.10,SSW,198,1.0,4.0,94,0.00,,,0.01,Wunderground v.1.15,2013-06-29 06:36:00,
2013-06-28 23:41:00,59.3,57.6,30.11,SSW,198,1.0,4.0,94,0.00,,,0.01,Wunderground v.1.15,2013-06-29 06:41:00,
2013-06-28 23:47:00,59.2,57.5,30.10,SSW,198,1.0,4.0,94,0.00,,,0.01,Wunderground v.1.15,2013-06-29 06:47:00,
2013-06-28 23:53:00,59.2,57.5,30.10,SSW,198,1.0,4.0,94,0.00,,,0.01,Wunderground v.1.15,2013-06-29 06:53:00,
2013-06-28 23:59:00,59.0,57.3,30.10,SSW,198,2.0,4.0,94,0.00,,,0.01,Wunderground v.1.15,2013-06-29 06:59:00,